createdAt,value
2022-11-15T00:01:19.298Z,34.57
2022-11-15T00:04:21.187Z,36.53
2022-11-15T00:07:53.585Z,35.90
2022-11-15T00:10:56.091Z,35.33
2022-11-15T00:13:59.135Z,36.33
2022-11-15T00:17:01.352Z,35.60
2022-11-15T00:20:04.062Z,36.37
2022-11-15T00:23:06.534Z,35.83
2022-11-15T00:26:14.716Z,36.23
2022-11-15T00:29:16.652Z,36.73
2022-11-15T00:32:18.903Z,36.97
2022-11-15T00:35:21.233Z,35.37
2022-11-15T00:38:23.449Z,37.33
2022-11-15T00:41:25.307Z,36.97
2022-11-15T00:44:27.490Z,35.97
2022-11-15T00:47:29.486Z,37.23
2022-11-15T00:50:31.684Z,36.83
2022-11-15T00:53:33.964Z,37.23
2022-11-15T00:56:36.398Z,36.53
2022-11-15T00:59:38.368Z,37.60
2022-11-15T01:02:40.589Z,38.10
2022-11-15T01:05:42.693Z,38.77
2022-11-15T01:08:44.864Z,36.93
2022-11-15T01:11:46.824Z,36.17
2022-11-15T01:14:48.989Z,38.53
2022-11-15T01:17:50.971Z,37.73
2022-11-15T01:20:53.132Z,38.97
2022-11-15T01:23:56.468Z,39.17
2022-11-15T01:26:58.633Z,40.30
2022-11-15T01:30:00.504Z,40.37
2022-11-15T01:33:02.761Z,40.07
2022-11-15T01:36:06.362Z,40.30
2022-11-15T01:39:09.180Z,41.13
2022-11-15T01:42:14.497Z,37.93
2022-11-15T01:45:17.429Z,38.53
2022-11-15T01:48:19.543Z,38.13
2022-11-15T01:51:25.268Z,38.17
2022-11-15T01:54:27.724Z,37.43
2022-11-15T01:57:30.186Z,39.47
2022-11-15T02:00:32.849Z,40.07
2022-11-15T02:03:47.036Z,38.73
2022-11-15T02:06:49.733Z,37.80
2022-11-15T02:09:54.637Z,37.80
2022-11-15T02:12:58.050Z,38.47
2022-11-15T02:16:22.270Z,35.30
2022-11-15T02:19:41.813Z,34.43
2022-11-15T02:23:21.215Z,36.23
2022-11-15T02:27:04.204Z,35.13
2022-11-15T02:30:12.663Z,35.30
2022-11-15T02:33:36.520Z,33.67
2022-11-15T02:36:50.274Z,33.93
2022-11-15T02:40:04.372Z,33.93
2022-11-15T02:43:31.148Z,32.17
2022-11-15T02:47:07.771Z,32.63
2022-11-15T02:50:13.200Z,32.03
2022-11-15T02:53:16.034Z,31.10
2022-11-15T02:56:18.431Z,31.93
2022-11-15T02:59:20.294Z,31.67
2022-11-15T03:02:48.267Z,32.97
2022-11-15T03:06:16.642Z,33.67
2022-11-15T03:09:40.649Z,32.50
2022-11-15T03:12:49.905Z,33.07
2022-11-15T03:16:05.893Z,32.73
2022-11-15T03:19:20.559Z,30.30
2022-11-15T03:22:27.578Z,31.30
2022-11-15T03:25:32.824Z,29.73
2022-11-15T03:28:44.400Z,30.57
2022-11-15T03:31:52.310Z,29.17
2022-11-15T03:35:03.047Z,29.50
2022-11-15T03:38:27.883Z,28.10
2022-11-15T03:41:36.648Z,30.50
2022-11-15T03:45:02.799Z,32.87
2022-11-15T03:48:17.087Z,33.13
2022-11-15T03:51:19.690Z,33.90
2022-11-15T03:54:21.800Z,34.53
2022-11-15T03:57:24.021Z,35.43
2022-11-15T04:00:26.291Z,37.23
2022-11-15T04:03:28.438Z,37.03
2022-11-15T04:06:30.729Z,37.40
2022-11-15T04:09:32.586Z,39.37
2022-11-15T04:12:38.315Z,37.43
2022-11-15T04:15:40.168Z,37.40
2022-11-15T04:18:44.474Z,37.00
2022-11-15T04:22:04.888Z,39.13
2022-11-15T04:25:07.203Z,37.23
2022-11-15T04:28:09.265Z,34.50
2022-11-15T04:31:11.507Z,36.97
2022-11-15T04:34:13.397Z,37.13
2022-11-15T04:37:17.146Z,35.80
2022-11-15T04:40:19.240Z,35.13
2022-11-15T04:43:21.680Z,37.27
2022-11-15T04:46:24.760Z,37.43
2022-11-15T04:49:26.905Z,36.40
2022-11-15T04:52:28.816Z,35.27
2022-11-15T04:55:31.004Z,35.97
2022-11-15T04:58:33.012Z,35.50
2022-11-15T05:01:41.911Z,35.00
2022-11-15T05:04:46.584Z,34.67
2022-11-15T05:07:48.702Z,34.03
2022-11-15T05:10:50.591Z,37.23
2022-11-15T05:13:55.407Z,33.90
2022-11-15T05:16:57.291Z,35.90
2022-11-15T05:19:59.442Z,33.77
2022-11-15T05:23:01.517Z,36.83
2022-11-15T05:26:09.223Z,37.67
2022-11-15T05:29:12.244Z,37.33
2022-11-15T05:32:14.573Z,37.07
2022-11-15T05:35:32.805Z,36.70
2022-11-15T05:38:35.155Z,36.87
2022-11-15T05:41:44.210Z,37.10
2022-11-15T05:44:49.832Z,37.33
2022-11-15T05:47:53.254Z,38.33
2022-11-15T05:50:55.800Z,37.93
2022-11-15T05:53:59.571Z,37.77
2022-11-15T05:57:01.999Z,39.97
2022-11-15T06:00:07.671Z,38.50
2022-11-15T06:03:10.611Z,40.40
2022-11-15T06:06:16.392Z,41.00
2022-11-15T06:09:19.176Z,40.93
2022-11-15T06:12:21.116Z,41.40
2022-11-15T06:15:23.265Z,41.53
2022-11-15T06:18:25.241Z,41.00
2022-11-15T06:21:28.913Z,40.20
2022-11-15T06:24:30.868Z,40.83
2022-11-15T06:27:33.283Z,37.43
2022-11-15T06:30:35.309Z,38.50
2022-11-15T06:33:38.045Z,39.23
2022-11-15T06:36:41.772Z,40.23
2022-11-15T06:39:46.824Z,39.93
2022-11-15T06:42:48.682Z,41.20
2022-11-15T06:45:50.895Z,42.23
2022-11-15T06:48:56.001Z,39.93
2022-11-15T06:51:58.464Z,38.50
2022-11-15T06:55:00.418Z,37.30
2022-11-15T06:58:02.811Z,35.40
2022-11-15T07:01:07.799Z,31.77
2022-11-15T07:04:10.850Z,32.13
2022-11-15T07:07:13.048Z,30.77
2022-11-15T07:10:16.983Z,33.03
2022-11-15T07:13:18.968Z,32.73
2022-11-15T07:16:21.225Z,31.83
2022-11-15T07:19:23.459Z,31.77
2022-11-15T07:22:25.699Z,35.20
2022-11-15T07:25:27.702Z,30.30
2022-11-15T07:28:30.120Z,31.40
2022-11-15T07:31:32.175Z,30.67
2022-11-15T07:34:34.428Z,31.47
2022-11-15T07:37:37.567Z,29.73
2022-11-15T07:40:39.820Z,32.37
2022-11-15T07:43:41.742Z,31.40
2022-11-15T07:46:43.938Z,29.70
2022-11-15T07:49:47.051Z,31.83
2022-11-15T07:52:53.816Z,31.30
2022-11-15T07:55:55.788Z,31.67
2022-11-15T07:59:00.177Z,30.40
2022-11-15T08:02:02.766Z,30.20
2022-11-15T08:05:05.509Z,32.43
2022-11-15T08:08:09.101Z,33.13
2022-11-15T08:11:11.293Z,33.47
2022-11-15T08:14:13.893Z,34.33
2022-11-15T08:17:16.074Z,32.77
2022-11-15T08:20:18.002Z,35.77
2022-11-15T08:23:20.587Z,33.90
2022-11-15T08:26:22.847Z,34.50
2022-11-15T08:29:25.044Z,33.87
2022-11-15T08:32:26.939Z,33.47
2022-11-15T08:35:29.652Z,34.87
2022-11-15T08:38:32.456Z,33.70
2022-11-15T08:41:38.362Z,33.73
2022-11-15T08:44:40.290Z,33.33
2022-11-15T08:47:42.454Z,35.73
2022-11-15T08:50:45.465Z,34.70
2022-11-15T08:53:47.710Z,36.43
2022-11-15T08:56:49.678Z,36.37
2022-11-15T08:59:51.879Z,37.87
2022-11-15T09:02:53.770Z,37.77
2022-11-15T09:05:58.004Z,38.63
2022-11-15T09:09:02.006Z,38.93
2022-11-15T09:12:05.448Z,38.23
2022-11-15T09:15:09.470Z,37.93
2022-11-15T09:18:11.638Z,39.70
2022-11-15T09:21:14.046Z,39.83
2022-11-15T09:24:16.262Z,40.13
2022-11-15T09:27:18.151Z,39.30
2022-11-15T09:30:20.425Z,39.87
2022-11-15T09:33:22.323Z,39.10
2022-11-15T09:36:25.106Z,38.80
2022-11-15T09:39:27.061Z,37.40
2022-11-15T09:43:08.861Z,37.30
2022-11-15T09:46:22.107Z,37.13
2022-11-15T09:49:24.748Z,38.27
2022-11-15T09:52:26.769Z,37.37
2022-11-15T09:55:48.191Z,38.23
2022-11-15T09:59:01.077Z,37.47
2022-11-15T10:02:17.170Z,38.20
2022-11-15T10:05:24.913Z,37.43
2022-11-15T10:08:59.923Z,36.57
2022-11-15T10:12:02.128Z,38.73
2022-11-15T10:15:12.671Z,36.97
2022-11-15T10:18:29.465Z,37.97
2022-11-15T10:21:47.176Z,38.30
2022-11-15T10:24:51.489Z,37.97
2022-11-15T10:28:28.939Z,36.87
2022-11-15T10:31:30.849Z,37.00
2022-11-15T10:34:37.373Z,37.80
2022-11-15T10:37:41.176Z,37.50
2022-11-15T10:40:50.962Z,38.60
2022-11-15T10:44:18.353Z,38.07
2022-11-15T10:47:37.680Z,38.33
2022-11-15T10:50:49.644Z,38.10
2022-11-15T10:53:53.007Z,39.30
2022-11-15T10:56:58.239Z,52.47
2022-11-15T11:00:19.709Z,39.70
2022-11-15T11:04:06.674Z,36.67
2022-11-15T11:07:22.679Z,38.53
2022-11-15T11:13:47.992Z,37.70
2022-11-15T11:16:59.903Z,38.57
2022-11-15T11:20:02.013Z,39.73
2022-11-15T11:23:32.546Z,39.10
2022-11-15T11:26:55.724Z,37.53
2022-11-15T11:30:12.864Z,36.73
2022-11-15T11:33:22.751Z,38.23
2022-11-15T11:36:41.393Z,39.40
2022-11-15T11:39:46.612Z,40.63
2022-11-15T11:43:36.644Z,38.50
2022-11-15T11:46:41.900Z,45.83
2022-11-15T11:49:56.636Z,41.07
2022-11-15T11:53:18.832Z,39.27
2022-11-15T11:56:43.709Z,41.47
2022-11-15T12:00:22.769Z,38.37
2022-11-15T12:03:43.198Z,38.47
2022-11-15T12:07:00.031Z,39.77
2022-11-15T12:10:25.406Z,37.47
2022-11-15T12:13:34.440Z,36.90
2022-11-15T12:16:36.592Z,38.10
2022-11-15T12:19:39.984Z,38.20
2022-11-15T12:23:14.929Z,40.10
2022-11-15T12:26:41.004Z,41.93
2022-11-15T12:29:56.986Z,43.57
2022-11-15T12:33:01.291Z,45.17
2022-11-15T12:36:11.873Z,42.53
2022-11-15T12:39:15.344Z,45.70
2022-11-15T12:42:23.124Z,51.33
2022-11-15T12:45:42.373Z,50.13
2022-11-15T12:49:08.913Z,52.33
2022-11-15T12:52:11.147Z,56.00
2022-11-15T12:55:31.993Z,54.93
2022-11-15T12:58:46.779Z,51.70
2022-11-15T13:01:49.776Z,50.30
2022-11-15T13:04:54.314Z,49.37
2022-11-15T13:07:58.158Z,50.23
2022-11-15T13:11:39.421Z,49.83
2022-11-15T13:14:42.753Z,46.17
2022-11-15T13:17:55.939Z,48.47
2022-11-15T13:21:02.311Z,47.10
2022-11-15T13:24:05.198Z,43.57
2022-11-15T13:27:20.367Z,48.33
2022-11-15T13:30:26.257Z,44.47
2022-11-15T13:33:36.858Z,42.30
2022-11-15T13:36:39.081Z,42.60
2022-11-15T13:39:41.027Z,41.33
2022-11-15T13:42:45.734Z,42.53
2022-11-15T13:46:13.358Z,43.07
2022-11-15T13:49:15.766Z,41.30
2022-11-15T13:52:18.095Z,40.47
2022-11-15T13:55:23.412Z,39.97
2022-11-15T13:58:25.631Z,35.60
2022-11-15T14:01:32.350Z,40.33
2022-11-15T14:04:47.311Z,40.73
2022-11-15T14:08:04.446Z,41.83
2022-11-15T14:11:24.762Z,40.93
2022-11-15T14:14:28.776Z,38.27
2022-11-15T14:17:31.655Z,34.40
2022-11-15T14:20:38.103Z,33.47
2022-11-15T14:23:42.006Z,35.37
2022-11-15T14:26:44.558Z,36.60
2022-11-15T14:29:47.406Z,38.27
2022-11-15T14:32:51.475Z,44.47
2022-11-15T14:35:54.001Z,43.63
2022-11-15T14:38:56.271Z,41.00
2022-11-15T14:41:58.163Z,39.50
2022-11-15T14:45:00.516Z,34.30
2022-11-15T14:48:03.851Z,35.00
2022-11-15T14:51:15.736Z,33.73
2022-11-15T14:54:17.707Z,40.20
2022-11-15T14:57:20.144Z,35.40
2022-11-15T15:00:23.038Z,36.67
2022-11-15T15:03:25.243Z,34.27
2022-11-15T15:06:27.729Z,36.23
2022-11-15T15:09:29.927Z,34.80
2022-11-15T15:12:31.831Z,33.73
2022-11-15T15:15:36.863Z,34.20
2022-11-15T15:18:39.830Z,32.37
2022-11-15T15:21:41.988Z,29.03
2022-11-15T15:24:47.976Z,30.70
2022-11-15T15:27:50.741Z,32.10
2022-11-15T15:30:55.928Z,32.50
2022-11-15T15:34:00.146Z,34.33
2022-11-15T15:37:26.431Z,34.20
2022-11-15T15:40:30.951Z,30.77
2022-11-15T15:43:32.898Z,28.40
2022-11-15T15:46:35.497Z,28.93
2022-11-15T15:49:37.414Z,29.73
2022-11-15T15:52:39.834Z,31.37
2022-11-15T15:55:42.139Z,32.63
2022-11-15T15:58:44.418Z,29.73
2022-11-15T16:01:46.316Z,29.30
2022-11-15T16:04:48.611Z,30.07
2022-11-15T16:07:50.545Z,31.57
2022-11-15T16:10:52.709Z,38.00
2022-11-15T16:13:54.743Z,32.40
2022-11-15T16:16:56.948Z,32.87
2022-11-15T16:19:58.846Z,34.60
2022-11-15T16:23:07.546Z,32.83
2022-11-15T16:26:22.572Z,37.67
2022-11-15T16:29:25.408Z,35.43
2022-11-15T16:32:29.476Z,36.87
2022-11-15T16:35:44.364Z,37.37
2022-11-15T16:38:46.664Z,39.90
2022-11-15T16:41:50.385Z,42.57
2022-11-15T16:44:52.418Z,53.67
2022-11-15T16:47:55.191Z,41.40
2022-11-15T16:50:58.903Z,39.87
2022-11-15T16:54:01.160Z,43.83
2022-11-15T16:57:03.417Z,42.33
2022-11-15T17:00:06.489Z,40.63
2022-11-15T17:03:08.990Z,40.60
2022-11-15T17:06:13.608Z,41.77
2022-11-15T17:09:19.071Z,61.77
2022-11-15T17:12:21.343Z,44.07
2022-11-15T17:15:24.757Z,80.43
2022-11-15T17:18:27.422Z,34.80
2022-11-15T17:21:33.629Z,34.33
2022-11-15T17:24:36.397Z,36.70
2022-11-15T17:27:38.577Z,39.13
2022-11-15T17:30:42.917Z,35.27
2022-11-15T17:33:44.956Z,33.17
2022-11-15T17:36:48.327Z,34.03
2022-11-15T17:39:50.232Z,30.83
2022-11-15T17:42:53.322Z,35.50
2022-11-15T17:45:55.246Z,35.97
2022-11-15T17:48:57.823Z,35.17
2022-11-15T17:51:59.874Z,32.53
2022-11-15T17:55:02.423Z,35.60
2022-11-15T17:58:04.545Z,32.83
2022-11-15T18:01:12.855Z,35.63
2022-11-15T18:04:15.484Z,34.70
2022-11-15T18:07:17.914Z,34.80
2022-11-15T18:10:20.150Z,38.67
2022-11-15T18:13:22.548Z,37.97
2022-11-15T18:16:28.212Z,38.27
2022-11-15T18:19:30.519Z,39.87
2022-11-15T18:22:32.453Z,38.23
2022-11-15T18:25:34.720Z,39.27
2022-11-15T18:28:39.863Z,39.37
2022-11-15T18:31:47.427Z,34.77
2022-11-15T18:34:49.823Z,35.43
2022-11-15T18:37:52.259Z,31.17
2022-11-15T18:40:56.294Z,34.73
2022-11-15T18:44:00.762Z,34.83
2022-11-15T18:47:03.003Z,33.13
2022-11-15T18:50:05.553Z,33.83
2022-11-15T18:53:07.505Z,34.23
2022-11-15T18:56:11.341Z,33.70
2022-11-15T18:59:14.309Z,35.33
2022-11-15T19:02:16.591Z,31.20
2022-11-15T19:05:21.394Z,35.57
2022-11-15T19:08:23.778Z,33.57
2022-11-15T19:11:31.372Z,31.83
2022-11-15T19:14:33.602Z,32.60
2022-11-15T19:17:35.678Z,32.40
2022-11-15T19:20:38.336Z,30.57
2022-11-15T19:23:43.469Z,31.60
2022-11-15T19:26:46.606Z,29.27
2022-11-15T19:29:49.047Z,31.13
2022-11-15T19:32:51.851Z,29.27
2022-11-15T19:36:07.846Z,31.13
2022-11-15T19:39:18.586Z,30.23
2022-11-15T19:42:20.750Z,33.40
2022-11-15T19:45:23.720Z,34.13
2022-11-15T19:48:26.454Z,33.93
2022-11-15T19:51:40.427Z,34.13
2022-11-15T19:54:43.201Z,31.30
2022-11-15T19:57:45.455Z,34.97
2022-11-15T20:00:47.417Z,34.23
2022-11-15T20:03:51.194Z,35.73
2022-11-15T20:06:53.213Z,37.90
2022-11-15T20:09:55.456Z,34.10
2022-11-15T20:12:57.327Z,33.97
2022-11-15T20:15:59.758Z,34.37
2022-11-15T20:19:01.821Z,33.03
2022-11-15T20:22:04.048Z,33.10
2022-11-15T20:25:06.444Z,35.70
2022-11-15T20:28:11.172Z,33.50
2022-11-15T20:31:13.171Z,37.43
2022-11-15T20:34:15.422Z,37.77
2022-11-15T20:37:17.431Z,35.13
2022-11-15T20:40:19.870Z,35.80
2022-11-15T20:43:21.748Z,35.67
2022-11-15T20:46:43.297Z,36.57
2022-11-15T20:49:45.330Z,34.63
2022-11-15T20:52:47.588Z,35.50
2022-11-15T20:55:53.237Z,33.30
2022-11-15T20:59:01.093Z,31.43
2022-11-15T21:02:03.739Z,36.53
2022-11-15T21:05:06.869Z,34.57
2022-11-15T21:08:10.351Z,33.23
2022-11-15T21:11:31.370Z,31.00
2022-11-15T21:14:36.509Z,31.43
2022-11-15T21:17:38.695Z,32.30
2022-11-15T21:20:41.414Z,31.67
2022-11-15T21:23:43.749Z,30.73
2022-11-15T21:26:46.066Z,32.03
2022-11-15T21:29:50.995Z,32.20
2022-11-15T21:32:52.891Z,30.87
2022-11-15T21:35:56.308Z,31.63
2022-11-15T21:38:58.392Z,32.23
2022-11-15T21:42:00.728Z,33.17
2022-11-15T21:45:02.762Z,31.23
2022-11-15T21:48:05.845Z,32.37
2022-11-15T21:51:10.321Z,33.23
2022-11-15T21:54:12.578Z,33.30
2022-11-15T21:57:14.552Z,34.37
2022-11-15T22:00:36.222Z,32.47
2022-11-15T22:03:38.438Z,33.60
2022-11-15T22:06:40.800Z,31.70
2022-11-15T22:09:45.081Z,28.07
2022-11-15T22:12:48.982Z,26.77
2022-11-15T22:15:57.566Z,28.60
2022-11-15T22:19:01.374Z,29.27
2022-11-15T22:22:03.339Z,29.73
2022-11-15T22:25:06.103Z,29.87
2022-11-15T22:28:08.021Z,29.70
2022-11-15T22:31:11.040Z,27.83
2022-11-15T22:34:12.995Z,27.13
2022-11-15T22:37:22.305Z,30.43
2022-11-15T22:40:24.291Z,27.17
2022-11-15T22:43:27.545Z,28.07
2022-11-15T22:46:30.345Z,29.13
2022-11-15T22:49:32.673Z,29.33
2022-11-15T22:52:35.299Z,27.03
2022-11-15T22:55:41.217Z,29.30
2022-11-15T22:58:43.152Z,28.70
2022-11-15T23:01:45.675Z,28.77
2022-11-15T23:04:47.655Z,26.77
2022-11-15T23:07:49.863Z,27.63
2022-11-15T23:11:24.017Z,27.17
2022-11-15T23:14:26.310Z,28.33
2022-11-15T23:17:28.328Z,27.20
2022-11-15T23:20:43.112Z,26.43
2022-11-15T23:23:46.009Z,26.27
2022-11-15T23:26:50.883Z,27.20
2022-11-15T23:30:11.319Z,24.23
2022-11-15T23:33:34.754Z,23.47
2022-11-15T23:36:36.815Z,21.20
2022-11-15T23:39:39.076Z,22.97
2022-11-15T23:42:41.038Z,22.30
2022-11-15T23:45:43.208Z,21.67
2022-11-15T23:48:45.159Z,20.23
2022-11-15T23:51:47.751Z,21.17
2022-11-15T23:54:50.037Z,19.73
2022-11-15T23:57:52.217Z,22.27
